Time;durP1;ratioP1;P1;durP2;ratioP2;P2;SDS_P1;SDS_P2;PMS_P1;PMS_P2;Temp;Humidity;BMP_temperature;BMP_pressure;BME280_temperature;BME280_humidity;BME280_pressure;Samples;Min_cycle;Max_cycle;Signal;HPM_P1;HPM_P2
2022/04/14 00:02:18;;;;;;;;;;;;;;;;;;5095642;28;19908;-73
2022/04/14 00:04:44;;;;;;;;;;;;;;;;;;5094800;28;19962;-73
2022/04/14 00:07:09;;;;;;;;;;;13.50;99.90;;;;;;5095545;28;20429;-73
2022/04/14 00:09:36;;;;;;;;;;;;;;;;;;5086193;28;19913;-73
2022/04/14 00:12:02;;;;;;;;;;;13.50;99.90;;;;;;5056491;28;20759;-73
2022/04/14 00:14:28;;;;;;;;;;;13.40;99.90;;;;;;5075098;28;19908;-73
2022/04/14 00:16:54;;;;;;;;;;;;;;;;;;5074381;28;19915;-73
2022/04/14 00:19:20;;;;;;;;;;;;;;;;;;5074553;28;19908;-73
2022/04/14 00:21:45;;;;;;;;;;;;;;;;;;5074373;28;19915;-73
2022/04/14 00:24:11;;;;;;;;;;;;;;;;;;5074391;28;19939;-73
2022/04/14 00:26:37;;;;;;;;;;;;;;;;;;5085914;28;19912;-73
2022/04/14 00:29:03;;;;;;;;;;;;;;;;;;5094427;28;20213;-73
2022/04/14 00:31:29;;;;;;;;;;;;;;;;;;5095532;28;19915;-73
2022/04/14 00:33:55;;;;;;;;;;;;;;;;;;5094278;28;19908;-73
2022/04/14 00:36:21;;;;;;;;;;;;;;;;;;5095019;28;20097;-73
2022/04/14 00:38:47;;;;;;;;;;;;;;;;;;5094650;28;19919;-73
2022/04/14 00:41:13;;;;;;;;;;;;;;;;;;5095013;28;19908;-73
2022/04/14 00:43:39;;;;;;;;;;;13.30;99.90;;;;;;5078901;28;19913;-73
2022/04/14 00:46:05;;;;;;;;;;;;;;;;;;5073994;28;19917;-73
2022/04/14 00:48:30;;;;;;;;;;;;;;;;;;5074528;28;19966;-73
2022/04/14 00:50:56;;;;;;;;;;;13.00;99.90;;;;;;5073686;28;20269;-73
2022/04/14 00:53:22;;;;;;;;;;;;;;;;;;5074423;28;19916;-73
2022/04/14 00:55:49;;;;;;;;;;;12.80;99.90;;;;;;5073418;28;19963;-73
2022/04/14 00:58:15;;;;;;;;;;;;;;;;;;5074513;28;20004;-73
2022/04/14 01:00:40;;;;;;;;;;;;;;;;;;5074297;28;19947;-73
2022/04/14 01:03:06;;;;;;;;;;;;;;;;;;5073491;28;20012;-73
2022/04/14 01:05:33;;;;;;;;;;;;;;;;;;5056156;28;20311;-73
2022/04/14 01:07:59;;;;;;;;;;;12.90;99.90;;;;;;5055375;28;19908;-73
2022/04/14 01:10:25;;;;;;;;;;;;;;;;;;5074093;28;19908;-73
2022/04/14 01:12:51;;;;;;;;;;;12.80;99.90;;;;;;5073320;28;19908;-73
2022/04/14 01:15:17;;;;;;;;;;;12.80;99.90;;;;;;5074028;28;19958;-73
2022/04/14 01:17:43;;;;;;;;;;;;;;;;;;5073970;28;19953;-73
2022/04/14 01:20:11;;;;;;;;;;;;;;;;;;5073405;28;19962;-74
2022/04/14 01:22:48;;;;;;;;;;;12.80;99.90;;;;;;5073862;28;19934;-74
2022/04/14 01:25:14;;;;;;;;;;;;;;;;;;5074251;28;19944;-73
2022/04/14 01:27:40;;;;;;;;;;;;;;;;;;5073803;28;20308;-73
2022/04/14 01:30:06;;;;;;;;;;;;;;;;;;5072956;28;19909;-73
2022/04/14 01:32:32;;;;;;;;;;;;;;;;;;5072982;28;19935;-73
2022/04/14 01:34:57;;;;;;;;;;;13.10;99.90;;;;;;5071568;28;20003;-73
2022/04/14 01:37:23;;;;;;;;;;;12.90;99.90;;;;;;5073701;28;20322;-73
2022/04/14 01:39:49;;;;;;;;;;;;;;;;;;5074637;28;19909;-73
2022/04/14 01:42:15;;;;;;;;;;;;;;;;;;5076046;28;20357;-73
2022/04/14 01:44:41;;;;;;;;;;;;;;;;;;5073743;28;20061;-73
2022/04/14 01:47:06;;;;;;;;;;;12.60;99.90;;;;;;5072902;28;20026;-73
2022/04/14 01:49:32;;;;;;;;;;;12.60;99.90;;;;;;5073584;28;19970;-73
2022/04/14 01:51:57;;;;;;;;;;;12.80;99.90;;;;;;5072788;28;19908;-73
2022/04/14 01:54:23;;;;;;;;;;;;;;;;;;5073620;28;19924;-73
2022/04/14 01:56:49;;;;;;;;;;;;;;;;;;5072610;28;19914;-73
2022/04/14 01:59:15;;;;;;;;;;;12.70;99.90;;;;;;5073395;28;19947;-73
2022/04/14 02:01:41;;;;;;;;;;;;;;;;;;5073112;28;20338;-73
2022/04/14 02:04:07;;;;;;;;;;;12.60;99.90;;;;;;5072342;28;19915;-73
2022/04/14 02:06:33;;;;;;;;;;;12.40;99.90;;;;;;5073006;28;19966;-73
2022/04/14 02:08:58;;;;;;;;;;;12.60;99.90;;;;;;5072201;28;19995;-73
2022/04/14 02:11:24;;;;;;;;;;;12.60;99.90;;;;;;5055154;28;19959;-73
2022/04/14 02:13:50;;;;;;;;;;;;;;;;;;5072853;28;20371;-74
2022/04/14 02:16:15;;;;;;;;;;;12.80;99.90;;;;;;5072968;28;20276;-73
2022/04/14 02:18:42;;;;;;;;;;;;;;;;;;5072836;28;19915;-74
2022/04/14 02:21:08;;;;;;;;;;;12.80;99.90;;;;;;5072029;28;19904;-74
2022/04/14 02:23:33;;;;;;;;;;;12.80;99.90;;;;;;5073159;28;19909;-74
2022/04/14 02:25:59;;;;;;;;;;;13.00;99.90;;;;;;5071862;28;20361;-74
2022/04/14 02:28:25;;;;;;;;;;;;;;;;;;5072674;28;19989;-74
2022/04/14 02:30:51;;;;;;;;;;;;;;;;;;5071982;28;19909;-74
2022/04/14 02:33:16;;;;;;;;;;;12.70;99.90;;;;;;5072581;28;19920;-74
2022/04/14 02:35:42;;;;;;;;;;;12.70;99.90;;;;;;5072643;28;19962;-73
2022/04/14 02:38:07;;;;;;;;;;;12.60;99.90;;;;;;5071775;28;19987;-73
2022/04/14 02:40:33;;;;;;;;;;;;;;;;;;5072509;28;19954;-74
2022/04/14 02:42:59;;;;;;;;;;;12.70;99.90;;;;;;5071717;28;19915;-74
2022/04/14 02:45:25;;;;;;;;;;;12.60;99.90;;;;;;5054083;28;19939;-74
2022/04/14 02:47:51;;;;;;;;;;;;;;;;;;5071984;28;19915;-73
2022/04/14 02:50:17;;;;;;;;;;;;;;;;;;5072348;28;19998;-74
2022/04/14 02:52:43;;;;;;;;;;;;;;;;;;5072449;28;20445;-74
2022/04/14 02:55:09;;;;;;;;;;;;;;;;;;5071392;28;19925;-74
2022/04/14 03:48:58;;;;;;;;;;;;;;;;;;5109816;27;19912;-73
2022/04/14 03:51:23;;;;;;;;;;;12.30;99.90;;;;;;5110329;28;19912;-74
2022/04/14 03:53:49;;;;;;;;;;;;;;;;;;5100449;28;20292;-73
2022/04/14 03:56:15;;;;;;;;;;;;;;;;;;5079618;28;19911;-73
2022/04/14 03:58:41;;;;;;;;;;;;;;;;;;5089737;28;19912;-73
2022/04/14 04:01:07;;;;;;;;;;;12.30;99.90;;;;;;5088974;28;19908;-73
2022/04/14 04:03:33;;;;;;;;;;;;;;;;;;5089663;28;19915;-74
2022/04/14 04:05:59;;;;;;;;;;;;;;;;;;5095446;28;19912;-74
2022/04/14 04:08:24;;;;;;;;;;;12.10;99.90;;;;;;5098893;28;19908;-74
2022/04/14 04:10:50;;;;;;;;;;;;;;;;;;5109947;28;20280;-74
2022/04/14 04:13:16;;;;;;;;;;;;;;;;;;5109078;28;19984;-74
2022/04/14 04:15:42;;;;;;;;;;;;;;;;;;5109780;28;19912;-74
2022/04/14 04:18:07;;;;;;;;;;;12.30;99.90;;;;;;5108840;28;19951;-73
2022/04/14 04:20:34;;;;;;;;;;;;;;;;;;5109786;28;19919;-73
2022/04/14 04:23:02;;;;;;;;;;;12.30;99.90;;;;;;5109156;28;19908;-73
2022/04/14 04:25:28;;;;;;;;;;;12.40;99.90;;;;;;5109597;28;19956;-73
2022/04/14 04:27:54;;;;;;;;;;;;;;;;;;5102368;28;19912;-73
2022/04/14 04:30:19;;;;;;;;;;;12.20;99.90;;;;;;5097483;28;19908;-74
2022/04/14 04:32:45;;;;;;;;;;;;;;;;;;5089110;28;19948;-73
2022/04/14 04:35:12;;;;;;;;;;;;;;;;;;5088279;28;20003;-73
2022/04/14 04:37:39;;;;;;;;;;;;;;;;;;5088859;28;20008;-73
2022/04/14 04:40:05;;;;;;;;;;;12.20;99.90;;;;;;5088141;28;19914;-74
2022/04/14 04:42:31;;;;;;;;;;;;;;;;;;5088885;28;19908;-73
2022/04/14 04:44:57;;;;;;;;;;;;;;;;;;5088497;28;20005;-73
2022/04/14 04:47:23;;;;;;;;;;;;;;;;;;5092380;28;20384;-73
2022/04/14 04:49:49;;;;;;;;;;;;;;;;;;5109155;28;20372;-73
2022/04/14 04:52:15;;;;;;;;;;;12.30;99.90;;;;;;5104435;28;19918;-73
2022/04/14 04:54:41;;;;;;;;;;;;;;;;;;5079344;28;20327;-73
2022/04/14 04:57:06;;;;;;;;;;;12.10;99.90;;;;;;5105581;28;19919;-73
2022/04/14 04:59:33;;;;;;;;;;;;;;;;;;5097205;28;19908;-73
2022/04/14 05:01:59;;;;;;;;;;;;;;;;;;5086442;28;19913;-73
2022/04/14 05:04:25;;;;;;;;;;;;;;;;;;5095156;28;19908;-73
2022/04/14 05:06:51;;;;;;;;;;;;;;;;;;5095182;28;20292;-74
2022/04/14 05:09:16;;;;;;;;;;;12.10;99.90;;;;;;5094419;28;20085;-73
2022/04/14 05:11:42;;;;;;;;;;;;;;;;;;5095171;28;20288;-74
2022/04/14 05:14:09;;;;;;;;;;;12.10;99.90;;;;;;5094368;28;19908;-74
2022/04/14 05:16:35;;;;;;;;;;;12.00;99.90;;;;;;5088707;28;20007;-72
2022/04/14 05:19:01;;;;;;;;;;;;;;;;;;5076179;28;20000;-74
2022/04/14 05:21:27;;;;;;;;;;;;;;;;;;5074643;28;19959;-73
2022/04/14 05:23:53;;;;;;;;;;;;;;;;;;5076858;28;19912;-74
2022/04/14 05:26:18;;;;;;;;;;;12.10;99.90;;;;;;5076809;28;19939;-73
2022/04/14 05:28:44;;;;;;;;;;;12.00;99.90;;;;;;5074497;28;20365;-74
2022/04/14 05:31:10;;;;;;;;;;;12.20;99.90;;;;;;5073804;28;19912;-74
2022/04/14 05:33:35;;;;;;;;;;;12.10;99.90;;;;;;5074530;28;19912;-73
2022/04/14 05:36:01;;;;;;;;;;;;;;;;;;5073913;28;19912;-73
2022/04/14 05:38:27;;;;;;;;;;;12.00;99.90;;;;;;5074190;28;19936;-74
2022/04/14 05:40:53;;;;;;;;;;;11.90;99.90;;;;;;5074413;28;19908;-74
2022/04/14 05:43:19;;;;;;;;;;;11.90;99.90;;;;;;5073526;28;19917;-78
2022/04/14 05:45:47;;;;;;;;;;;;;;;;;;5074299;28;19958;-72
2022/04/14 05:48:13;;;;;;;;;;;;;;;;;;5073217;28;19955;-73
2022/04/14 05:50:39;;;;;;;;;;;;;;;;;;5074171;28;19912;-74
2022/04/14 05:53:05;;;;;;;;;;;12.10;99.90;;;;;;5073364;28;19914;-72
2022/04/14 05:55:30;;;;;;;;;;;12.30;99.90;;;;;;5074434;28;20276;-74
2022/04/14 05:57:56;;;;;;;;;;;12.30;99.90;;;;;;5076123;28;19966;-73
2022/04/14 06:00:22;;;;;;;;;;;;;;;;;;5073220;28;19935;-73
2022/04/14 06:02:47;;;;;;;;;;;12.10;99.90;;;;;;5073989;28;20288;-73
2022/04/14 06:05:13;;;;;;;;;;;12.10;99.90;;;;;;5073140;28;19908;-74
2022/04/14 06:07:38;;;;;;;;;;;12.10;99.90;;;;;;5074401;28;19912;-73
2022/04/14 06:10:04;;;;;;;;;;;;;;;;;;5072075;28;19962;-74
2022/04/14 06:12:30;;;;;;;;;;;12.30;99.90;;;;;;5073769;28;20006;-73
2022/04/14 06:14:55;;;;;;;;;;;12.40;99.90;;;;;;5073745;28;19951;-73
2022/04/14 06:17:21;;;;;;;;;;;12.30;99.90;;;;;;5074336;28;20425;-73
2022/04/14 06:19:46;;;;;;;;;;;12.20;99.90;;;;;;5078066;28;19912;-73
2022/04/14 06:22:12;;;;;;;;;;;;;;;;;;5072771;28;19908;-73
2022/04/14 06:24:38;;;;;;;;;;;12.50;99.90;;;;;;5078837;28;19913;-73
2022/04/14 06:27:04;;;;;;;;;;;;;;;;;;5080283;28;20288;-73
2022/04/14 06:29:29;;;;;;;;;;;12.40;99.90;;;;;;5076607;28;19962;-73
2022/04/14 06:31:55;;;;;;;;;;;;;;;;;;5093641;28;20003;-73
2022/04/14 06:34:21;;;;;;;;;;;12.30;99.90;;;;;;5092800;28;19908;-74
2022/04/14 06:36:46;;;;;;;;;;;12.50;99.90;;;;;;5086353;28;19916;-74
2022/04/14 06:39:15;;;;;;;;;;;12.60;99.90;;;;;;5079498;28;19959;-73
2022/04/14 06:41:40;;;;;;;;;;;12.60;99.90;;;;;;5073069;28;19915;-73
2022/04/14 06:44:06;;;;;;;;;;;;;;;;;;5054605;28;19908;-74
2022/04/14 06:46:32;;;;;;;;;;;;;;;;;;5072820;28;20369;-74
2022/04/14 06:48:58;;;;;;;;;;;12.50;99.90;;;;;;5082036;28;20300;-73
2022/04/14 06:51:23;;;;;;;;;;;;;;;;;;5079516;28;19915;-72
2022/04/14 06:53:49;;;;;;;;;;;13.00;99.90;;;;;;5088313;28;19916;-65
2022/04/14 06:56:15;;;;;;;;;;;;;;;;;;5090436;28;20441;-65
2022/04/14 06:58:42;;;;;;;;;;;13.30;99.90;;;;;;5091860;28;19915;-65
2022/04/14 07:01:08;;;;;;;;;;;;;;;;;;5090950;28;19959;-67
2022/04/14 07:03:33;;;;;;;;;;;13.80;99.90;;;;;;5092067;28;20410;-65
2022/04/14 07:06:00;;;;;;;;;;;13.60;99.90;;;;;;5091648;28;19916;-65
2022/04/14 07:08:26;;;;;;;;;;;;;;;;;;5090929;28;19903;-65
2022/04/14 07:10:52;;;;;;;;;;;13.70;99.90;;;;;;5091410;28;19919;-65
2022/04/14 07:13:17;;;;;;;;;;;13.50;99.90;;;;;;5092043;28;20006;-64
2022/04/14 07:15:43;;;;;;;;;;;13.80;99.90;;;;;;5087234;28;20321;-65
2022/04/14 07:18:09;;;;;;;;;;;;;;;;;;5090002;28;19940;-64
2022/04/14 07:20:34;;;;;;;;;;;13.70;99.90;;;;;;5072747;28;19919;-64
2022/04/14 07:23:02;;;;;;;;;;;14.00;99.90;;;;;;5074700;28;20399;-64
2022/04/14 07:25:30;;;;;;;;;;;13.70;99.90;;;;;;5071894;28;19985;-64
2022/04/14 07:27:56;;;;;;;;;;;13.70;99.90;;;;;;5054440;28;19961;-64
2022/04/14 07:30:23;;;;;;;;;;;13.60;99.90;;;;;;5071632;28;20003;-64
2022/04/14 07:32:49;;;;;;;;;;;14.00;99.90;;;;;;5072420;28;19931;-64
2022/04/14 07:35:15;;;;;;;;;;;14.20;99.90;;;;;;5074810;28;19916;-64
2022/04/14 07:37:41;;;;;;;;;;;14.20;99.90;;;;;;5079687;28;20284;-64
2022/04/14 07:40:07;;;;;;;;;;;;;;;;;;5072204;28;19915;-75
2022/04/14 07:42:33;;;;;;;;;;;14.10;99.90;;;;;;5075862;28;19995;-74
2022/04/14 07:44:59;;;;;;;;;;;13.60;99.90;;;;;;5072056;28;19909;-75
2022/04/14 07:47:24;;;;;;;;;;;13.60;99.90;;;;;;5071067;28;19927;-75
2022/04/14 07:49:50;;;;;;;;;;;;;;;;;;5072233;28;19912;-75
2022/04/14 07:52:16;;;;;;;;;;;13.90;99.90;;;;;;5071329;28;20396;-75
2022/04/14 07:54:41;;;;;;;;;;;13.80;99.90;;;;;;5072219;28;20011;-75
2022/04/14 07:57:07;;;;;;;;;;;;;;;;;;5071862;28;19959;-75
2022/04/14 07:59:33;;;;;;;;;;;14.10;99.90;;;;;;5072131;28;19916;-75
2022/04/14 08:02:00;;;;;;;;;;;;;;;;;;5072165;28;19909;-74
2022/04/14 08:04:26;;;;;;;;;;;14.50;99.90;;;;;;5071358;28;19958;-75
2022/04/14 08:06:52;;;;;;;;;;;14.40;99.90;;;;;;5072068;28;19913;-74
2022/04/14 08:09:18;;;;;;;;;;;14.20;99.90;;;;;;5053311;28;19919;-74
2022/04/14 08:11:43;;;;;;;;;;;14.50;99.90;;;;;;5072070;28;20284;-74
2022/04/14 08:14:09;;;;;;;;;;;;;;;;;;5071649;28;19908;-75
2022/04/14 08:16:35;;;;;;;;;;;14.50;99.90;;;;;;5071855;28;19924;-74
2022/04/14 08:19:00;;;;;;;;;;;14.60;99.90;;;;;;5071962;28;19912;-74
2022/04/14 08:21:26;;;;;;;;;;;14.60;99.90;;;;;;5053068;28;19912;-74
2022/04/14 08:23:53;;;;;;;;;;;14.50;99.90;;;;;;5071878;28;20018;-74
2022/04/14 08:26:18;;;;;;;;;;;14.40;99.90;;;;;;5071077;28;19912;-74
2022/04/14 08:28:44;;;;;;;;;;;;;;;;;;5053649;28;19908;-74
2022/04/14 08:31:10;;;;;;;;;;;;;;;;;;5053521;28;19915;-74
2022/04/14 08:33:37;;;;;;;;;;;14.60;99.90;;;;;;5072507;28;19909;-74
2022/04/14 08:36:03;;;;;;;;;;;14.80;99.90;;;;;;5075797;28;19915;-74
2022/04/14 08:38:29;;;;;;;;;;;14.90;99.90;;;;;;5074625;28;20519;-74
2022/04/14 08:40:55;;;;;;;;;;;;;;;;;;5075529;28;19941;-74
2022/04/14 08:43:27;;;;;;;;;;;14.80;99.90;;;;;;5056808;28;19909;-75
2022/04/14 08:45:53;;;;;;;;;;;14.80;99.90;;;;;;5075397;28;19912;-74
2022/04/14 08:48:20;;;;;;;;;;;14.90;99.90;;;;;;5074400;28;19969;-75
2022/04/14 08:50:48;;;;;;;;;;;14.90;99.90;;;;;;5075266;28;19958;-75
2022/04/14 08:53:14;;;;;;;;;;;;;;;;;;5074472;28;19909;-75
2022/04/14 08:55:40;;;;;;;;;;;;;;;;;;5075212;28;19931;-74
2022/04/14 08:58:10;;;;;;;;;;;15.40;99.90;;;;;;5075077;28;20007;-74
2022/04/14 09:00:36;;;;;;;;;;;15.30;99.00;;;;;;5074420;28;19912;-74
2022/04/14 09:03:03;;;;;;;;;;;15.50;98.30;;;;;;5074579;28;19919;-74
2022/04/14 09:05:28;;;;;;;;;;;15.70;96.10;;;;;;5074041;28;19909;-74
2022/04/14 09:07:54;;;;;;;;;;;15.80;98.00;;;;;;5074840;28;19908;-74
2022/04/14 09:10:20;;;;;;;;;;;15.60;94.10;;;;;;5073971;28;19915;-74
2022/04/14 09:12:46;;;;;;;;;;;;;;;;;;5074707;28;19909;-74
2022/04/14 09:15:12;;;;;;;;;;;;;;;;;;5074570;28;19908;-74
2022/04/14 09:17:37;;;;;;;;;;;15.70;90.00;;;;;;5056301;28;20372;-73
2022/04/14 09:20:22;;;;;;;;;;;15.80;90.30;;;;;;5081368;28;20451;-74
2022/04/14 09:23:07;;;;;;;;;;;15.70;85.60;;;;;;5094907;28;19912;-74
2022/04/14 09:25:33;;;;;;;;;;;15.90;85.70;;;;;;5093937;28;20428;-74
2022/04/14 09:28:07;;;;;;;;;;;15.90;84.20;;;;;;5074439;28;19998;-74
2022/04/14 09:30:32;;;;;;;;;;;16.10;84.20;;;;;;5073828;28;20550;-74
2022/04/14 09:32:58;;;;;;;;;;;16.20;90.40;;;;;;5074637;28;19912;-74
2022/04/14 09:35:25;;;;;;;;;;;16.10;87.10;;;;;;5073754;28;19915;-74
2022/04/14 09:38:06;;;;;;;;;;;16.20;83.80;;;;;;5075437;28;19947;-75
2022/04/14 09:40:33;;;;;;;;;;;16.00;85.30;;;;;;5093553;28;19909;-76
2022/04/14 09:42:59;;;;;;;;;;;;;;;;;;5094492;28;19995;-76
2022/04/14 09:45:26;;;;;;;;;;;16.70;85.10;;;;;;5093539;28;19954;-72
2022/04/14 09:47:52;;;;;;;;;;;;;;;;;;5080803;28;19981;-68
2022/04/14 09:50:18;;;;;;;;;;;;;;;;;;5073197;28;19912;-68
2022/04/14 09:52:56;;;;;;;;;;;16.70;76.50;;;;;;5073998;28;20275;-67
2022/04/14 09:55:21;;;;;;;;;;;16.90;72.20;;;;;;5076171;28;19998;-68
2022/04/14 09:58:04;;;;;;;;;;;16.70;75.50;;;;;;5082834;28;20384;-65
2022/04/14 10:00:37;;;;;;;;;;;16.80;70.10;;;;;;5075490;28;19971;-67
2022/04/14 10:03:09;;;;;;;;;;;16.90;72.50;;;;;;5092914;28;19916;-66
2022/04/14 10:05:35;;;;;;;;;;;16.80;74.50;;;;;;5093171;28;19908;-67
2022/04/14 10:08:01;;;;;;;;;;;16.80;62.40;;;;;;5093749;28;20364;-66
2022/04/14 10:10:26;;;;;;;;;;;16.80;62.90;;;;;;5076332;28;19908;-66
2022/04/14 10:12:52;;;;;;;;;;;;;;;;;;5073299;28;19908;-67
2022/04/14 10:15:18;;;;;;;;;;;;;;;;;;5075148;28;19965;-66
2022/04/14 10:17:44;;;;;;;;;;;;;;;;;;5084824;28;19930;-65
2022/04/14 10:20:10;;;;;;;;;;;17.00;66.40;;;;;;5082927;28;19912;-65
2022/04/14 10:22:36;;;;;;;;;;;;;;;;;;5089237;28;19919;-64
2022/04/14 10:25:02;;;;;;;;;;;;;;;;;;5092242;28;20147;-67
2022/04/14 10:27:29;;;;;;;;;;;17.00;41.90;;;;;;5091353;28;19962;-65
2022/04/14 10:29:54;;;;;;;;;;;16.80;47.40;;;;;;5090064;28;19912;-67
2022/04/14 10:32:21;;;;;;;;;;;16.80;50.10;;;;;;5088817;28;20003;-69
2022/04/14 10:34:46;;;;;;;;;;;16.90;49.90;;;;;;5092126;28;19961;-66
2022/04/14 10:37:12;;;;;;;;;;;;;;;;;;5092189;28;19916;-66
2022/04/14 10:39:41;;;;;;;;;;;17.30;43.00;;;;;;5091373;28;20158;-66
2022/04/14 10:42:08;;;;;;;;;;;17.50;37.60;;;;;;5092303;28;19908;-67
2022/04/14 10:44:34;;;;;;;;;;;;;;;;;;5091321;28;20471;-67
2022/04/14 10:47:00;;;;;;;;;;;18.00;35.60;;;;;;5090696;28;20033;-66
2022/04/14 10:49:33;;;;;;;;;;;17.90;36.00;;;;;;5092489;28;19912;-66
2022/04/14 10:52:18;;;;;;;;;;;18.20;37.40;;;;;;5091676;28;21717;-67
2022/04/14 10:54:59;;;;;;;;;;;18.40;32.60;;;;;;5072861;28;19908;-83
2022/04/14 10:57:35;;;;;;;;;;;17.60;31.00;;;;;;5053434;28;20286;-83
2022/04/14 11:00:00;;;;;;;;;;;18.20;36.50;;;;;;5072919;28;19915;-83
2022/04/14 11:02:46;;;;;;;;;;;17.90;36.20;;;;;;5071992;28;19908;-83
2022/04/14 11:05:31;;;;;;;;;;;18.30;32.80;;;;;;5072592;28;20258;-83
2022/04/14 11:07:57;;;;;;;;;;;;;;;;;;5072509;28;19908;-83
2022/04/14 11:10:23;;;;;;;;;;;18.00;40.10;;;;;;5053824;28;19915;-83
2022/04/14 11:12:54;;;;;;;;;;;18.30;44.10;;;;;;5072620;28;20062;-83
2022/04/14 11:15:32;;;;;;;;;;;18.70;33.50;;;;;;5071895;28;20349;-81
2022/04/14 11:18:03;;;;;;;;;;;18.90;35.00;;;;;;5072373;28;19916;-84
2022/04/14 11:20:30;;;;;;;;;;;;;;;;;;5053744;28;20450;-84
2022/04/14 11:23:11;;;;;;;;;;;18.70;27.10;;;;;;5072430;28;19915;-83
2022/04/14 11:25:49;;;;;;;;;;;18.50;20.60;;;;;;5071680;28;19969;-82
2022/04/14 11:28:15;;;;;;;;;;;18.10;21.30;;;;;;5072490;28;19908;-83
2022/04/14 11:30:41;;;;;;;;;;;18.30;17.40;;;;;;5071630;28;20281;-81
2022/04/14 11:33:14;;;;;;;;;;;17.70;18.00;;;;;;5072439;28;19969;-82
2022/04/14 11:35:44;;;;;;;;;;;17.90;14.80;;;;;;5071654;28;20050;-82
2022/04/14 11:38:11;;;;;;;;;;;;;;;;;;5072368;28;19912;-82
2022/04/14 11:40:37;;;;;;;;;;;;;;;;;;5071498;28;19999;-82
2022/04/14 11:43:03;;;;;;;;;;;17.90;19.90;;;;;;5072339;28;20304;-83
2022/04/14 11:45:28;;;;;;;;;;;17.60;17.00;;;;;;5053477;28;19909;-83
2022/04/14 11:48:00;;;;;;;;;;;17.60;20.20;;;;;;5072020;28;20265;-84
2022/04/14 11:50:26;;;;;;;;;;;17.60;19.40;;;;;;5053510;28;19912;-82
2022/04/14 11:52:55;;;;;;;;;;;17.30;32.90;;;;;;5054162;28;20285;-83
2022/04/14 11:55:21;;;;;;;;;;;;;;;;;;5071597;28;19908;-76
2022/04/14 11:57:47;;;;;;;;;;;17.60;22.10;;;;;;5072215;28;20467;-83
2022/04/14 12:00:13;;;;;;;;;;;;;;;;;;5054116;28;19915;-78
2022/04/14 12:02:38;;;;;;;;;;;17.60;19.30;;;;;;5071320;28;19912;-82
2022/04/14 12:05:05;;;;;;;;;;;17.80;14.90;;;;;;5054109;28;19908;-82
2022/04/14 12:07:31;;;;;;;;;;;18.10;13.10;;;;;;5071329;28;20344;-82
2022/04/14 12:10:01;;;;;;;;;;;18.10;18.50;;;;;;5075401;28;19915;-82
2022/04/14 12:12:29;;;;;;;;;;;18.30;10.70;;;;;;5075614;28;19950;-82
2022/04/14 12:14:55;;;;;;;;;;;18.10;14.00;;;;;;5076031;28;19916;-82
2022/04/14 12:17:22;;;;;;;;;;;;;;;;;;5075797;28;20246;-76
2022/04/14 12:19:51;;;;;;;;;;;18.40;15.00;;;;;;5075630;28;19912;-82
2022/04/14 12:22:17;;;;;;;;;;;18.10;25.80;;;;;;5057790;28;19916;-82
2022/04/14 12:24:43;;;;;;;;;;;;;;;;;;5075019;28;20537;-82
2022/04/14 12:27:09;;;;;;;;;;;;;;;;;;5075784;28;19908;-82
2022/04/14 12:29:41;;;;;;;;;;;17.70;16.50;;;;;;5074978;28;19909;-82
2022/04/14 12:32:06;;;;;;;;;;;;;;;;;;5075674;28;19908;-83
2022/04/14 12:34:33;;;;;;;;;;;18.40;5.10;;;;;;5074899;28;20280;-82
2022/04/14 12:37:08;;;;;;;;;;;18.70;5.10;;;;;;5075595;28;19912;-76
2022/04/14 12:39:34;;;;;;;;;;;19.50;6.40;;;;;;5074770;28;19915;-85
2022/04/14 12:42:00;;;;;;;;;;;;;;;;;;5075435;28;19908;-81
2022/04/14 12:44:26;;;;;;;;;;;;;;;;;;5056720;28;19915;-80
2022/04/14 12:46:52;;;;;;;;;;;;;;;;;;5075140;28;19967;-79
2022/04/14 12:49:22;;;;;;;;;;;;;;;;;;5057382;28;19999;-79
2022/04/14 12:51:48;;;;;;;;;;;;;;;;;;5074882;28;19909;-80
2022/04/14 12:54:14;;;;;;;;;;;;;;;;;;5057330;28;19961;-79
2022/04/14 12:56:40;;;;;;;;;;;;;;;;;;5074430;28;19931;-79
2022/04/14 12:59:15;;;;;;;;;;;19.20;1.00;;;;;;5075185;28;19908;-79
2022/04/14 13:01:44;;;;;;;;;;;19.10;1.00;;;;;;5074373;28;19916;-82
2022/04/14 13:04:09;;;;;;;;;;;18.80;1.00;;;;;;5075073;28;20015;-81
2022/04/14 13:06:35;;;;;;;;;;;18.60;1.00;;;;;;5056225;28;20412;-82
2022/04/14 13:09:12;;;;;;;;;;;18.70;2.30;;;;;;5075088;28;19962;-82
2022/04/14 13:11:42;;;;;;;;;;;18.80;4.90;;;;;;5074260;28;20349;-81
2022/04/14 13:14:16;;;;;;;;;;;18.50;1.00;;;;;;5074947;28;19909;-82
2022/04/14 13:16:43;;;;;;;;;;;18.30;4.10;;;;;;5074208;28;20288;-81
2022/04/14 13:19:08;;;;;;;;;;;18.10;9.30;;;;;;5074380;28;19960;-81
2022/04/14 13:21:35;;;;;;;;;;;18.10;11.10;;;;;;5073970;28;19951;-81
2022/04/14 13:24:00;;;;;;;;;;;18.10;12.20;;;;;;5074757;28;19908;-80
2022/04/14 13:26:26;;;;;;;;;;;;;;;;;;5074228;28;20265;-76
2022/04/14 13:28:52;;;;;;;;;;;18.00;12.40;;;;;;5074506;28;19919;-83
2022/04/14 13:31:17;;;;;;;;;;;18.00;12.00;;;;;;5074658;28;19916;-83
2022/04/14 13:33:43;;;;;;;;;;;18.10;12.10;;;;;;5073820;28;20025;-81
2022/04/14 13:36:08;;;;;;;;;;;18.20;11.80;;;;;;5056535;28;19952;-77
2022/04/14 13:38:34;;;;;;;;;;;18.70;12.50;;;;;;5073643;28;20013;-76
2022/04/14 13:41:00;;;;;;;;;;;;;;;;;;5074512;28;20012;-76
2022/04/14 13:43:25;;;;;;;;;;;;;;;;;;5056183;28;20003;-76
2022/04/14 13:45:51;;;;;;;;;;;18.60;10.80;;;;;;5073995;28;19993;-76
2022/04/14 13:48:16;;;;;;;;;;;18.50;11.20;;;;;;5074066;28;20432;-76
2022/04/14 13:50:45;;;;;;;;;;;;;;;;;;5073472;28;19923;-76
2022/04/14 13:53:11;;;;;;;;;;;;;;;;;;5074219;28;19944;-77
2022/04/14 13:55:37;;;;;;;;;;;;;;;;;;5055363;28;20357;-78
2022/04/14 13:58:03;;;;;;;;;;;18.20;11.90;;;;;;5074181;28;19923;-81
2022/04/14 14:00:28;;;;;;;;;;;;;;;;;;5073504;28;20307;-76
2022/04/14 14:02:54;;;;;;;;;;;18.80;11.30;;;;;;5073890;28;19909;-77
2022/04/14 14:05:20;;;;;;;;;;;19.60;9.70;;;;;;5074031;28;20369;-83
2022/04/14 14:07:45;;;;;;;;;;;19.00;3.00;;;;;;5055020;28;19961;-82
2022/04/14 14:10:12;;;;;;;;;;;19.10;4.10;;;;;;5073865;28;19947;-83
2022/04/14 14:12:39;;;;;;;;;;;18.70;6.80;;;;;;5055045;28;19908;-81
2022/04/14 14:15:05;;;;;;;;;;;;;;;;;;5073744;28;19915;-82
2022/04/14 14:17:31;;;;;;;;;;;19.80;5.40;;;;;;5054974;28;19917;-78
2022/04/14 14:19:57;;;;;;;;;;;;;;;;;;5073666;28;19919;-79
2022/04/14 14:22:22;;;;;;;;;;;19.90;6.10;;;;;;5055571;28;20288;-78
2022/04/14 14:24:48;;;;;;;;;;;;;;;;;;5054781;28;19913;-79
2022/04/14 14:27:14;;;;;;;;;;;20.30;3.00;;;;;;5073552;28;19916;-79
2022/04/14 14:29:41;;;;;;;;;;;20.90;1.00;;;;;;5072674;28;19962;-78
2022/04/14 14:32:07;;;;;;;;;;;20.70;1.00;;;;;;5072528;28;19962;-79
2022/04/14 14:34:33;;;;;;;;;;;;;;;;;;5054597;28;19940;-79
2022/04/14 14:36:59;;;;;;;;;;;20.50;1.00;;;;;;5073319;28;19919;-79
2022/04/14 14:39:31;;;;;;;;;;;;;;;;;;5073363;28;19958;-81
2022/04/14 14:41:56;;;;;;;;;;;18.60;1.00;;;;;;5073153;28;19908;-81
2022/04/14 14:44:22;;;;;;;;;;;18.80;1.00;;;;;;5073146;28;19966;-82
2022/04/14 14:46:47;;;;;;;;;;;18.60;1.00;;;;;;5050871;28;19983;-81
2022/04/14 14:49:13;;;;;;;;;;;;;;;;;;5053050;28;20258;-79
2022/04/14 14:51:39;;;;;;;;;;;;;;;;;;5052313;28;20285;-80
2022/04/14 14:54:05;;;;;;;;;;;18.80;1.00;;;;;;5051710;28;19916;-81
2022/04/14 14:56:31;;;;;;;;;;;;;;;;;;5052584;28;20382;-75
2022/04/14 14:59:16;;;;;;;;;;;19.50;1.00;;;;;;5052572;28;20007;-80
2022/04/14 15:01:43;;;;;;;;;;;19.00;1.00;;;;;;5054111;28;19912;-81
2022/04/14 15:04:11;;;;;;;;;;;19.20;1.00;;;;;;5072809;28;19934;-80
2022/04/14 15:06:38;;;;;;;;;;;19.10;1.00;;;;;;5071939;28;19909;-82
2022/04/14 15:09:03;;;;;;;;;;;18.80;1.00;;;;;;5054713;28;19959;-82
2022/04/14 15:11:29;;;;;;;;;;;19.00;1.00;;;;;;5072695;28;19951;-82
2022/04/14 15:13:54;;;;;;;;;;;18.90;1.00;;;;;;5071897;28;19916;-82
2022/04/14 15:16:20;;;;;;;;;;;19.80;1.00;;;;;;5072669;28;19913;-81
2022/04/14 15:18:45;;;;;;;;;;;20.00;1.00;;;;;;5071826;28;19916;-82
2022/04/14 15:21:11;;;;;;;;;;;20.40;1.00;;;;;;5072617;28;20050;-82
2022/04/14 15:23:37;;;;;;;;;;;20.70;1.00;;;;;;5071672;28;19916;-81
2022/04/14 15:26:03;;;;;;;;;;;;;;;;;;5072524;28;19912;-82
2022/04/14 15:28:30;;;;;;;;;;;;;;;;;;5072513;28;20374;-81
2022/04/14 15:30:56;;;;;;;;;;;;;;;;;;5071849;28;19908;-82
2022/04/14 15:33:23;;;;;;;;;;;;;;;;;;5072423;28;20382;-81
2022/04/14 15:35:49;;;;;;;;;;;;;;;;;;5071620;28;19909;-81
2022/04/14 15:38:15;;;;;;;;;;;;;;;;;;5072444;28;20411;-80
2022/04/14 15:40:41;;;;;;;;;;;;;;;;;;5071565;28;19916;-79
2022/04/14 15:43:06;;;;;;;;;;;19.90;1.00;;;;;;5072193;28;20459;-79
2022/04/14 15:45:32;;;;;;;;;;;;;;;;;;5072177;28;19954;-74
2022/04/14 15:47:57;;;;;;;;;;;18.70;1.00;;;;;;5071462;28;19981;-79
2022/04/14 15:50:23;;;;;;;;;;;18.90;1.00;;;;;;5072492;28;20376;-79
2022/04/14 15:52:49;;;;;;;;;;;18.70;1.00;;;;;;5071454;28;20357;-79
2022/04/14 15:55:15;;;;;;;;;;;18.80;1.00;;;;;;5072228;28;19909;-79
2022/04/14 15:57:40;;;;;;;;;;;18.60;1.00;;;;;;5071359;28;20013;-79
2022/04/14 16:00:06;;;;;;;;;;;18.70;1.00;;;;;;5072369;28;20012;-80
2022/04/14 16:02:32;;;;;;;;;;;18.60;1.00;;;;;;5072493;28;19908;-79